sensor_id;sensor_type;location;lat;lon;timestamp;P1;durP1;ratioP1;P2;durP2;ratioP2
24713;SDS011;12820;51.580;5.010;2024-01-25T00:00:22;39.22;;;8.35;;
24713;SDS011;12820;51.580;5.010;2024-01-25T00:05:24;53.55;;;9.07;;
24713;SDS011;12820;51.580;5.010;2024-01-25T00:10:27;47.55;;;8.43;;
24713;SDS011;12820;51.580;5.010;2024-01-25T00:15:29;47.53;;;8.52;;
24713;SDS011;12820;51.580;5.010;2024-01-25T00:20:31;40.53;;;9.18;;
24713;SDS011;12820;51.580;5.010;2024-01-25T00:25:33;45.88;;;9.18;;
24713;SDS011;12820;51.580;5.010;2024-01-25T00:30:36;49.20;;;9.38;;
24713;SDS011;12820;51.580;5.010;2024-01-25T00:35:38;64.40;;;11.15;;
24713;SDS011;12820;51.580;5.010;2024-01-25T00:40:40;49.47;;;9.20;;
24713;SDS011;12820;51.580;5.010;2024-01-25T00:45:43;41.35;;;9.38;;
24713;SDS011;12820;51.580;5.010;2024-01-25T00:50:45;61.67;;;9.55;;
24713;SDS011;12820;51.580;5.010;2024-01-25T00:55:48;50.42;;;9.20;;
24713;SDS011;12820;51.580;5.010;2024-01-25T01:00:50;57.22;;;9.70;;
24713;SDS011;12820;51.580;5.010;2024-01-25T01:05:53;52.75;;;10.48;;
24713;SDS011;12820;51.580;5.010;2024-01-25T01:10:56;53.67;;;8.57;;
24713;SDS011;12820;51.580;5.010;2024-01-25T01:15:58;53.83;;;10.85;;
24713;SDS011;12820;51.580;5.010;2024-01-25T01:21:00;50.83;;;8.98;;
24713;SDS011;12820;51.580;5.010;2024-01-25T01:26:03;52.13;;;9.65;;
24713;SDS011;12820;51.580;5.010;2024-01-25T01:31:06;50.47;;;8.55;;
24713;SDS011;12820;51.580;5.010;2024-01-25T01:36:09;48.60;;;9.23;;
24713;SDS011;12820;51.580;5.010;2024-01-25T01:41:11;61.80;;;11.45;;
24713;SDS011;12820;51.580;5.010;2024-01-25T01:46:20;49.80;;;9.18;;
24713;SDS011;12820;51.580;5.010;2024-01-25T01:51:40;55.72;;;9.25;;
24713;SDS011;12820;51.580;5.010;2024-01-25T01:56:43;57.33;;;9.95;;
24713;SDS011;12820;51.580;5.010;2024-01-25T02:01:47;47.70;;;9.00;;
24713;SDS011;12820;51.580;5.010;2024-01-25T02:06:49;45.22;;;9.02;;
24713;SDS011;12820;51.580;5.010;2024-01-25T02:11:59;40.17;;;8.68;;
24713;SDS011;12820;51.580;5.010;2024-01-25T02:17:02;57.43;;;9.60;;
24713;SDS011;12820;51.580;5.010;2024-01-25T02:22:05;44.33;;;9.35;;
24713;SDS011;12820;51.580;5.010;2024-01-25T02:27:08;51.78;;;9.70;;
24713;SDS011;12820;51.580;5.010;2024-01-25T02:32:10;52.67;;;9.63;;
24713;SDS011;12820;51.580;5.010;2024-01-25T02:37:12;48.72;;;9.00;;
24713;SDS011;12820;51.580;5.010;2024-01-25T02:42:16;39.63;;;8.65;;
24713;SDS011;12820;51.580;5.010;2024-01-25T02:47:18;54.72;;;9.98;;
24713;SDS011;12820;51.580;5.010;2024-01-25T02:52:20;51.47;;;9.27;;
24713;SDS011;12820;51.580;5.010;2024-01-25T02:57:23;44.22;;;8.52;;
24713;SDS011;12820;51.580;5.010;2024-01-25T03:02:25;43.05;;;8.00;;
24713;SDS011;12820;51.580;5.010;2024-01-25T03:07:27;43.20;;;9.38;;
24713;SDS011;12820;51.580;5.010;2024-01-25T03:12:29;42.00;;;9.25;;
24713;SDS011;12820;51.580;5.010;2024-01-25T03:17:32;43.30;;;9.48;;
24713;SDS011;12820;51.580;5.010;2024-01-25T03:22:34;43.20;;;9.10;;
24713;SDS011;12820;51.580;5.010;2024-01-25T03:27:36;46.60;;;8.90;;
24713;SDS011;12820;51.580;5.010;2024-01-25T03:32:38;43.10;;;8.80;;
24713;SDS011;12820;51.580;5.010;2024-01-25T03:37:41;56.03;;;9.75;;
24713;SDS011;12820;51.580;5.010;2024-01-25T03:42:43;63.13;;;8.93;;
24713;SDS011;12820;51.580;5.010;2024-01-25T03:48:03;51.65;;;9.35;;
24713;SDS011;12820;51.580;5.010;2024-01-25T03:53:06;39.63;;;8.63;;
24713;SDS011;12820;51.580;5.010;2024-01-25T03:58:08;40.97;;;9.25;;
24713;SDS011;12820;51.580;5.010;2024-01-25T04:03:11;44.75;;;9.50;;
24713;SDS011;12820;51.580;5.010;2024-01-25T04:08:13;37.50;;;9.27;;
24713;SDS011;12820;51.580;5.010;2024-01-25T04:13:15;48.15;;;8.50;;
24713;SDS011;12820;51.580;5.010;2024-01-25T04:18:17;44.75;;;8.63;;
24713;SDS011;12820;51.580;5.010;2024-01-25T04:23:20;42.90;;;8.73;;
24713;SDS011;12820;51.580;5.010;2024-01-25T04:28:22;49.65;;;9.20;;
24713;SDS011;12820;51.580;5.010;2024-01-25T04:33:24;41.13;;;10.20;;
24713;SDS011;12820;51.580;5.010;2024-01-25T04:38:26;51.03;;;10.10;;
24713;SDS011;12820;51.580;5.010;2024-01-25T04:43:29;51.28;;;10.50;;
24713;SDS011;12820;51.580;5.010;2024-01-25T04:48:36;56.13;;;9.80;;
24713;SDS011;12820;51.580;5.010;2024-01-25T04:53:39;47.80;;;10.27;;
24713;SDS011;12820;51.580;5.010;2024-01-25T04:58:41;37.53;;;9.18;;
24713;SDS011;12820;51.580;5.010;2024-01-25T05:03:43;50.80;;;9.80;;
24713;SDS011;12820;51.580;5.010;2024-01-25T05:08:46;53.88;;;11.32;;
24713;SDS011;12820;51.580;5.010;2024-01-25T05:13:48;43.92;;;9.88;;
24713;SDS011;12820;51.580;5.010;2024-01-25T05:18:51;66.15;;;11.35;;
24713;SDS011;12820;51.580;5.010;2024-01-25T05:23:53;57.50;;;10.07;;
24713;SDS011;12820;51.580;5.010;2024-01-25T05:28:56;48.67;;;9.88;;
24713;SDS011;12820;51.580;5.010;2024-01-25T05:33:58;58.50;;;11.45;;
24713;SDS011;12820;51.580;5.010;2024-01-25T05:39:01;48.42;;;10.90;;
24713;SDS011;12820;51.580;5.010;2024-01-25T05:44:08;47.38;;;9.70;;
24713;SDS011;12820;51.580;5.010;2024-01-25T05:49:10;54.83;;;11.23;;
24713;SDS011;12820;51.580;5.010;2024-01-25T05:54:13;48.97;;;9.98;;
24713;SDS011;12820;51.580;5.010;2024-01-25T05:59:15;47.58;;;11.75;;
24713;SDS011;12820;51.580;5.010;2024-01-25T06:04:17;58.72;;;10.38;;
24713;SDS011;12820;51.580;5.010;2024-01-25T06:09:21;37.22;;;10.50;;
24713;SDS011;12820;51.580;5.010;2024-01-25T06:14:23;43.50;;;10.82;;
24713;SDS011;12820;51.580;5.010;2024-01-25T06:19:26;44.97;;;11.77;;
24713;SDS011;12820;51.580;5.010;2024-01-25T06:24:28;49.58;;;11.15;;
24713;SDS011;12820;51.580;5.010;2024-01-25T06:29:30;45.55;;;11.40;;
24713;SDS011;12820;51.580;5.010;2024-01-25T06:34:32;43.83;;;11.40;;
24713;SDS011;12820;51.580;5.010;2024-01-25T06:39:35;59.80;;;12.10;;
24713;SDS011;12820;51.580;5.010;2024-01-25T06:44:37;49.60;;;11.68;;
24713;SDS011;12820;51.580;5.010;2024-01-25T06:49:39;52.03;;;12.38;;
24713;SDS011;12820;51.580;5.010;2024-01-25T06:54:42;45.33;;;12.00;;
24713;SDS011;12820;51.580;5.010;2024-01-25T06:59:44;58.30;;;13.38;;
24713;SDS011;12820;51.580;5.010;2024-01-25T07:04:47;51.20;;;14.23;;
24713;SDS011;12820;51.580;5.010;2024-01-25T07:09:50;56.47;;;14.15;;
24713;SDS011;12820;51.580;5.010;2024-01-25T07:14:52;59.00;;;14.60;;
24713;SDS011;12820;51.580;5.010;2024-01-25T07:19:55;65.35;;;14.20;;
24713;SDS011;12820;51.580;5.010;2024-01-25T07:24:57;64.20;;;14.85;;
24713;SDS011;12820;51.580;5.010;2024-01-25T07:29:59;56.75;;;14.65;;
24713;SDS011;12820;51.580;5.010;2024-01-25T07:35:02;63.25;;;14.52;;
24713;SDS011;12820;51.580;5.010;2024-01-25T07:40:05;58.42;;;14.77;;
24713;SDS011;12820;51.580;5.010;2024-01-25T07:45:08;67.80;;;15.30;;
24713;SDS011;12820;51.580;5.010;2024-01-25T07:50:11;67.72;;;16.30;;
24713;SDS011;12820;51.580;5.010;2024-01-25T07:55:14;59.92;;;15.52;;
24713;SDS011;12820;51.580;5.010;2024-01-25T08:00:16;53.28;;;15.50;;
24713;SDS011;12820;51.580;5.010;2024-01-25T08:05:18;59.88;;;16.38;;
24713;SDS011;12820;51.580;5.010;2024-01-25T08:10:21;61.45;;;16.20;;
24713;SDS011;12820;51.580;5.010;2024-01-25T08:15:23;67.47;;;16.30;;
24713;SDS011;12820;51.580;5.010;2024-01-25T08:20:25;67.93;;;16.23;;
24713;SDS011;12820;51.580;5.010;2024-01-25T08:25:28;60.63;;;15.10;;
24713;SDS011;12820;51.580;5.010;2024-01-25T08:30:30;65.47;;;16.08;;
24713;SDS011;12820;51.580;5.010;2024-01-25T08:35:33;65.40;;;16.45;;
24713;SDS011;12820;51.580;5.010;2024-01-25T08:40:38;68.70;;;16.83;;
24713;SDS011;12820;51.580;5.010;2024-01-25T08:45:40;78.32;;;16.85;;
24713;SDS011;12820;51.580;5.010;2024-01-25T08:50:42;63.38;;;16.13;;
24713;SDS011;12820;51.580;5.010;2024-01-25T08:55:45;59.10;;;15.18;;
24713;SDS011;12820;51.580;5.010;2024-01-25T09:06:39;48.58;;;15.27;;
24713;SDS011;12820;51.580;5.010;2024-01-25T09:28:21;59.70;;;16.52;;
24713;SDS011;12820;51.580;5.010;2024-01-25T09:39:09;57.03;;;17.02;;
24713;SDS011;12820;51.580;5.010;2024-01-25T09:44:11;67.65;;;18.05;;
24713;SDS011;12820;51.580;5.010;2024-01-25T09:49:14;66.57;;;16.98;;
24713;SDS011;12820;51.580;5.010;2024-01-25T09:54:16;60.50;;;17.95;;
24713;SDS011;12820;51.580;5.010;2024-01-25T09:59:19;64.72;;;17.73;;
24713;SDS011;12820;51.580;5.010;2024-01-25T10:04:21;54.88;;;16.88;;
24713;SDS011;12820;51.580;5.010;2024-01-25T10:09:26;56.65;;;18.58;;
24713;SDS011;12820;51.580;5.010;2024-01-25T10:14:29;70.03;;;19.90;;
24713;SDS011;12820;51.580;5.010;2024-01-25T10:19:31;59.20;;;18.15;;
24713;SDS011;12820;51.580;5.010;2024-01-25T10:24:34;68.07;;;19.50;;
24713;SDS011;12820;51.580;5.010;2024-01-25T10:29:37;65.50;;;19.95;;
24713;SDS011;12820;51.580;5.010;2024-01-25T10:34:40;73.57;;;18.27;;
24713;SDS011;12820;51.580;5.010;2024-01-25T10:39:43;63.55;;;18.35;;
24713;SDS011;12820;51.580;5.010;2024-01-25T10:44:47;61.63;;;17.25;;
24713;SDS011;12820;51.580;5.010;2024-01-25T10:49:50;67.57;;;17.58;;
24713;SDS011;12820;51.580;5.010;2024-01-25T10:54:54;61.38;;;17.20;;
24713;SDS011;12820;51.580;5.010;2024-01-25T10:59:56;49.58;;;15.27;;
24713;SDS011;12820;51.580;5.010;2024-01-25T11:04:59;45.58;;;14.95;;
24713;SDS011;12820;51.580;5.010;2024-01-25T11:10:01;56.97;;;15.88;;
24713;SDS011;12820;51.580;5.010;2024-01-25T11:15:07;49.55;;;14.90;;
24713;SDS011;12820;51.580;5.010;2024-01-25T11:20:14;52.30;;;13.60;;
24713;SDS011;12820;51.580;5.010;2024-01-25T11:25:20;45.33;;;13.70;;
24713;SDS011;12820;51.580;5.010;2024-01-25T11:30:22;63.75;;;14.25;;
24713;SDS011;12820;51.580;5.010;2024-01-25T11:35:25;52.55;;;14.15;;
24713;SDS011;12820;51.580;5.010;2024-01-25T11:40:28;46.83;;;13.55;;
24713;SDS011;12820;51.580;5.010;2024-01-25T11:45:33;52.75;;;14.25;;
24713;SDS011;12820;51.580;5.010;2024-01-25T11:50:35;49.78;;;13.25;;
24713;SDS011;12820;51.580;5.010;2024-01-25T11:55:38;51.28;;;12.07;;
24713;SDS011;12820;51.580;5.010;2024-01-25T12:00:40;45.60;;;13.50;;
24713;SDS011;12820;51.580;5.010;2024-01-25T12:05:42;49.92;;;12.98;;
24713;SDS011;12820;51.580;5.010;2024-01-25T12:10:46;54.85;;;13.48;;
24713;SDS011;12820;51.580;5.010;2024-01-25T12:15:51;51.63;;;12.70;;
24713;SDS011;12820;51.580;5.010;2024-01-25T12:20:54;44.33;;;12.85;;
24713;SDS011;12820;51.580;5.010;2024-01-25T12:25:58;54.65;;;14.40;;
24713;SDS011;12820;51.580;5.010;2024-01-25T12:31:02;57.50;;;12.98;;
24713;SDS011;12820;51.580;5.010;2024-01-25T12:36:05;51.90;;;13.05;;
24713;SDS011;12820;51.580;5.010;2024-01-25T12:41:08;53.42;;;12.88;;
24713;SDS011;12820;51.580;5.010;2024-01-25T12:46:11;48.60;;;13.48;;
24713;SDS011;12820;51.580;5.010;2024-01-25T12:51:27;61.17;;;13.57;;
24713;SDS011;12820;51.580;5.010;2024-01-25T12:56:30;56.08;;;14.27;;
24713;SDS011;12820;51.580;5.010;2024-01-25T13:01:32;53.55;;;14.85;;
24713;SDS011;12820;51.580;5.010;2024-01-25T13:06:36;50.20;;;14.52;;
24713;SDS011;12820;51.580;5.010;2024-01-25T13:11:39;55.83;;;15.30;;
24713;SDS011;12820;51.580;5.010;2024-01-25T13:16:41;54.15;;;15.48;;
24713;SDS011;12820;51.580;5.010;2024-01-25T13:21:44;54.45;;;16.27;;
24713;SDS011;12820;51.580;5.010;2024-01-25T13:26:46;57.72;;;17.80;;
24713;SDS011;12820;51.580;5.010;2024-01-25T13:31:48;61.33;;;18.95;;
24713;SDS011;12820;51.580;5.010;2024-01-25T13:36:50;67.95;;;22.40;;
24713;SDS011;12820;51.580;5.010;2024-01-25T13:41:52;54.00;;;20.45;;
24713;SDS011;12820;51.580;5.010;2024-01-25T13:46:55;60.80;;;22.85;;
24713;SDS011;12820;51.580;5.010;2024-01-25T13:52:00;61.25;;;22.67;;
24713;SDS011;12820;51.580;5.010;2024-01-25T13:57:06;67.03;;;21.98;;
24713;SDS011;12820;51.580;5.010;2024-01-25T14:02:08;68.00;;;24.70;;
24713;SDS011;12820;51.580;5.010;2024-01-25T14:07:11;62.85;;;23.88;;
24713;SDS011;12820;51.580;5.010;2024-01-25T14:12:13;63.28;;;23.95;;
24713;SDS011;12820;51.580;5.010;2024-01-25T14:17:15;58.13;;;22.55;;
24713;SDS011;12820;51.580;5.010;2024-01-25T14:22:17;72.30;;;22.77;;
24713;SDS011;12820;51.580;5.010;2024-01-25T14:27:32;59.78;;;22.23;;
24713;SDS011;12820;51.580;5.010;2024-01-25T14:32:35;67.18;;;22.55;;
24713;SDS011;12820;51.580;5.010;2024-01-25T14:37:39;61.72;;;22.15;;
24713;SDS011;12820;51.580;5.010;2024-01-25T14:42:41;60.55;;;22.25;;
24713;SDS011;12820;51.580;5.010;2024-01-25T14:47:43;53.83;;;21.55;;
24713;SDS011;12820;51.580;5.010;2024-01-25T14:52:46;61.42;;;21.58;;
24713;SDS011;12820;51.580;5.010;2024-01-25T14:57:48;62.80;;;22.73;;
24713;SDS011;12820;51.580;5.010;2024-01-25T15:02:50;64.55;;;21.85;;
24713;SDS011;12820;51.580;5.010;2024-01-25T15:07:52;64.53;;;21.73;;
24713;SDS011;12820;51.580;5.010;2024-01-25T15:12:54;55.30;;;22.67;;
24713;SDS011;12820;51.580;5.010;2024-01-25T15:18:00;68.97;;;22.85;;
24713;SDS011;12820;51.580;5.010;2024-01-25T15:23:03;66.68;;;23.23;;
24713;SDS011;12820;51.580;5.010;2024-01-25T15:28:05;72.07;;;23.60;;
24713;SDS011;12820;51.580;5.010;2024-01-25T15:33:07;62.88;;;23.25;;
24713;SDS011;12820;51.580;5.010;2024-01-25T15:38:10;64.32;;;23.80;;
24713;SDS011;12820;51.580;5.010;2024-01-25T15:43:12;62.35;;;24.17;;
24713;SDS011;12820;51.580;5.010;2024-01-25T15:48:14;63.38;;;22.40;;
24713;SDS011;12820;51.580;5.010;2024-01-25T15:53:16;73.50;;;23.92;;
24713;SDS011;12820;51.580;5.010;2024-01-25T15:58:22;68.30;;;23.83;;
24713;SDS011;12820;51.580;5.010;2024-01-25T16:03:24;61.35;;;22.52;;
24713;SDS011;12820;51.580;5.010;2024-01-25T16:08:27;64.05;;;24.73;;
24713;SDS011;12820;51.580;5.010;2024-01-25T16:13:30;61.85;;;24.15;;
24713;SDS011;12820;51.580;5.010;2024-01-25T16:18:32;73.22;;;25.35;;
24713;SDS011;12820;51.580;5.010;2024-01-25T16:23:35;86.88;;;26.75;;
24713;SDS011;12820;51.580;5.010;2024-01-25T16:28:38;80.00;;;26.65;;
24713;SDS011;12820;51.580;5.010;2024-01-25T16:33:40;81.70;;;28.27;;
24713;SDS011;12820;51.580;5.010;2024-01-25T16:38:43;80.88;;;29.42;;
24713;SDS011;12820;51.580;5.010;2024-01-25T16:43:45;85.28;;;31.90;;
24713;SDS011;12820;51.580;5.010;2024-01-25T16:48:47;89.05;;;31.25;;
24713;SDS011;12820;51.580;5.010;2024-01-25T16:53:50;96.53;;;31.88;;
24713;SDS011;12820;51.580;5.010;2024-01-25T16:58:54;84.38;;;31.65;;
24713;SDS011;12820;51.580;5.010;2024-01-25T17:03:56;91.65;;;35.25;;
24713;SDS011;12820;51.580;5.010;2024-01-25T17:08:59;107.05;;;36.70;;
24713;SDS011;12820;51.580;5.010;2024-01-25T17:14:01;106.85;;;37.88;;
24713;SDS011;12820;51.580;5.010;2024-01-25T17:19:03;108.18;;;36.42;;
24713;SDS011;12820;51.580;5.010;2024-01-25T17:24:06;108.72;;;37.70;;
24713;SDS011;12820;51.580;5.010;2024-01-25T17:29:08;105.70;;;39.08;;
24713;SDS011;12820;51.580;5.010;2024-01-25T17:34:11;111.47;;;37.75;;
24713;SDS011;12820;51.580;5.010;2024-01-25T17:39:16;112.03;;;38.97;;
24713;SDS011;12820;51.580;5.010;2024-01-25T17:44:18;113.70;;;41.15;;
24713;SDS011;12820;51.580;5.010;2024-01-25T17:49:20;111.07;;;40.25;;
24713;SDS011;12820;51.580;5.010;2024-01-25T17:54:23;112.53;;;39.72;;
24713;SDS011;12820;51.580;5.010;2024-01-25T17:59:26;118.78;;;39.65;;
24713;SDS011;12820;51.580;5.010;2024-01-25T18:04:28;119.57;;;43.70;;
24713;SDS011;12820;51.580;5.010;2024-01-25T18:09:31;117.63;;;40.78;;
24713;SDS011;12820;51.580;5.010;2024-01-25T18:14:33;112.88;;;41.75;;
24713;SDS011;12820;51.580;5.010;2024-01-25T18:19:35;115.07;;;41.97;;
24713;SDS011;12820;51.580;5.010;2024-01-25T18:24:38;111.35;;;40.42;;
24713;SDS011;12820;51.580;5.010;2024-01-25T18:29:41;113.60;;;42.67;;
24713;SDS011;12820;51.580;5.010;2024-01-25T18:34:44;114.90;;;42.80;;
24713;SDS011;12820;51.580;5.010;2024-01-25T18:39:46;104.57;;;40.67;;
24713;SDS011;12820;51.580;5.010;2024-01-25T18:44:49;110.10;;;39.92;;
24713;SDS011;12820;51.580;5.010;2024-01-25T18:49:51;107.15;;;40.58;;
24713;SDS011;12820;51.580;5.010;2024-01-25T18:54:54;117.13;;;40.40;;
24713;SDS011;12820;51.580;5.010;2024-01-25T18:59:56;110.40;;;40.95;;
24713;SDS011;12820;51.580;5.010;2024-01-25T19:04:58;103.70;;;38.33;;
24713;SDS011;12820;51.580;5.010;2024-01-25T19:10:01;108.45;;;40.72;;
24713;SDS011;12820;51.580;5.010;2024-01-25T19:15:04;112.55;;;39.42;;
24713;SDS011;12820;51.580;5.010;2024-01-25T19:20:11;122.80;;;40.05;;
24713;SDS011;12820;51.580;5.010;2024-01-25T19:25:14;118.75;;;40.53;;
24713;SDS011;12820;51.580;5.010;2024-01-25T19:30:16;121.82;;;41.50;;
24713;SDS011;12820;51.580;5.010;2024-01-25T19:35:18;118.00;;;42.53;;
24713;SDS011;12820;51.580;5.010;2024-01-25T19:40:22;123.30;;;41.03;;
24713;SDS011;12820;51.580;5.010;2024-01-25T19:45:25;122.70;;;42.30;;
24713;SDS011;12820;51.580;5.010;2024-01-25T19:50:27;123.45;;;42.72;;
24713;SDS011;12820;51.580;5.010;2024-01-25T19:55:29;119.60;;;40.08;;
24713;SDS011;12820;51.580;5.010;2024-01-25T20:00:32;121.25;;;42.72;;
24713;SDS011;12820;51.580;5.010;2024-01-25T20:05:35;123.15;;;40.78;;
24713;SDS011;12820;51.580;5.010;2024-01-25T20:10:37;107.13;;;39.53;;
24713;SDS011;12820;51.580;5.010;2024-01-25T20:15:40;112.22;;;41.47;;
24713;SDS011;12820;51.580;5.010;2024-01-25T20:20:42;120.63;;;44.65;;
24713;SDS011;12820;51.580;5.010;2024-01-25T20:25:50;124.13;;;43.67;;
24713;SDS011;12820;51.580;5.010;2024-01-25T20:30:53;122.05;;;42.75;;
24713;SDS011;12820;51.580;5.010;2024-01-25T20:35:55;125.60;;;43.42;;
24713;SDS011;12820;51.580;5.010;2024-01-25T20:40:57;115.20;;;40.78;;
24713;SDS011;12820;51.580;5.010;2024-01-25T20:45:59;109.70;;;39.83;;
24713;SDS011;12820;51.580;5.010;2024-01-25T20:51:02;107.93;;;38.67;;
24713;SDS011;12820;51.580;5.010;2024-01-25T20:56:04;99.35;;;37.58;;
24713;SDS011;12820;51.580;5.010;2024-01-25T21:01:07;104.97;;;39.13;;
24713;SDS011;12820;51.580;5.010;2024-01-25T21:06:10;101.10;;;40.05;;
24713;SDS011;12820;51.580;5.010;2024-01-25T21:11:13;104.38;;;40.08;;
24713;SDS011;12820;51.580;5.010;2024-01-25T21:16:16;95.53;;;37.42;;
24713;SDS011;12820;51.580;5.010;2024-01-25T21:21:20;97.45;;;39.63;;
24713;SDS011;12820;51.580;5.010;2024-01-25T21:26:23;99.82;;;40.28;;
24713;SDS011;12820;51.580;5.010;2024-01-25T21:31:25;94.95;;;40.08;;
24713;SDS011;12820;51.580;5.010;2024-01-25T21:36:27;93.28;;;38.55;;
24713;SDS011;12820;51.580;5.010;2024-01-25T21:41:29;92.20;;;38.08;;
24713;SDS011;12820;51.580;5.010;2024-01-25T21:46:31;93.43;;;37.75;;
24713;SDS011;12820;51.580;5.010;2024-01-25T21:51:40;96.00;;;38.00;;
24713;SDS011;12820;51.580;5.010;2024-01-25T21:56:44;94.05;;;39.20;;
24713;SDS011;12820;51.580;5.010;2024-01-25T22:01:47;96.40;;;37.58;;
24713;SDS011;12820;51.580;5.010;2024-01-25T22:06:50;93.25;;;37.45;;
24713;SDS011;12820;51.580;5.010;2024-01-25T22:11:53;94.90;;;38.45;;
24713;SDS011;12820;51.580;5.010;2024-01-25T22:16:56;87.43;;;38.78;;
24713;SDS011;12820;51.580;5.010;2024-01-25T22:21:58;83.65;;;37.80;;
24713;SDS011;12820;51.580;5.010;2024-01-25T22:27:00;91.75;;;38.17;;
24713;SDS011;12820;51.580;5.010;2024-01-25T22:32:03;80.90;;;34.97;;
24713;SDS011;12820;51.580;5.010;2024-01-25T22:37:05;80.35;;;35.67;;
24713;SDS011;12820;51.580;5.010;2024-01-25T22:42:07;82.28;;;35.95;;
24713;SDS011;12820;51.580;5.010;2024-01-25T22:47:10;76.68;;;34.30;;
24713;SDS011;12820;51.580;5.010;2024-01-25T23:03:20;67.35;;;32.45;;
24713;SDS011;12820;51.580;5.010;2024-01-25T23:08:22;69.60;;;32.70;;
24713;SDS011;12820;51.580;5.010;2024-01-25T23:19:09;68.63;;;32.67;;
24713;SDS011;12820;51.580;5.010;2024-01-25T23:35:19;61.95;;;32.25;;
24713;SDS011;12820;51.580;5.010;2024-01-25T23:40:22;59.90;;;31.98;;
24713;SDS011;12820;51.580;5.010;2024-01-25T23:56:33;61.95;;;32.42;;
